Archival Weather

Annapolis United States Naval

Annapolis United States Naval, Maryland (KNAK)

Report from: Tuesday, June 6, 2023 12:54 PM UTC
Current time: Friday, April 19, 2024 10:09 AM UTC

Current weather – Weather history – Daily summaries
Weather forecast

Temperature18.3°C (64.9°F)
Dew point9.4°C (48.9°F)
Winds 5 kts (2.6 m/s, 5.8 mph) West-Northwest (290°)
Visibility10 mi. (16.1 km)
Clouds Sky clear
Altimeter29.82 in.Hg (1010 mB)
Relative humidity56 %
Density altitude666 ft. (203 m)
Sea-level pressure101.0 kPa (1010 mB, 29.83 in.Hg)
Remarks Fully automated report
Automated weather observing station with precipitation discriminator
Flight conditions Visual Meteorological Conditions
Raw dataKNAK 061254Z AUTO 29005KT 10SM CLR 18/09 A2982 RMK AO2 SLP100 T01830094
An error has occurred. This application may no longer respond until reloaded. Reload 🗙